createdAt,value
2022-11-13T00:00:14.765Z,13.43
2022-11-13T00:02:41.142Z,13.27
2022-11-13T00:05:07.721Z,12.40
2022-11-13T00:07:34.088Z,13.10
2022-11-13T00:10:00.414Z,12.43
2022-11-13T00:12:26.934Z,12.90
2022-11-13T00:14:53.509Z,11.90
2022-11-13T00:17:19.866Z,12.27
2022-11-13T00:19:46.291Z,12.60
2022-11-13T00:22:12.684Z,13.50
2022-11-13T00:24:39.078Z,11.47
2022-11-13T00:27:05.498Z,12.67
2022-11-13T00:29:32.015Z,12.47
2022-11-13T00:32:00.052Z,11.93
2022-11-13T00:34:46.311Z,12.40
2022-11-13T00:37:12.871Z,11.80
2022-11-13T00:39:39.236Z,11.17
2022-11-13T00:42:05.733Z,10.37
2022-11-13T00:44:32.076Z,11.00
2022-11-13T00:46:58.413Z,11.10
2022-11-13T00:49:24.795Z,10.93
2022-11-13T00:51:51.199Z,10.17
2022-11-13T00:54:17.695Z,10.57
2022-11-13T00:56:44.093Z,10.67
2022-11-13T00:59:10.494Z,10.70
2022-11-13T01:01:37.010Z,11.47
2022-11-13T01:04:03.490Z,10.97
2022-11-13T01:06:29.915Z,11.13
2022-11-13T01:08:59.667Z,11.47
2022-11-13T01:11:28.248Z,11.47
2022-11-13T01:13:55.724Z,11.40
2022-11-13T01:16:25.287Z,10.90
2022-11-13T01:18:56.646Z,13.33
2022-11-13T01:21:25.613Z,10.87
2022-11-13T01:23:52.177Z,10.63
2022-11-13T01:26:26.416Z,10.27
2022-11-13T01:28:53.193Z,11.00
2022-11-13T01:31:24.224Z,11.27
2022-11-13T01:33:51.035Z,10.13
2022-11-13T01:36:20.893Z,9.97
2022-11-13T01:38:47.975Z,11.10
2022-11-13T01:41:29.581Z,10.50
2022-11-13T01:43:56.641Z,10.70
2022-11-13T01:46:31.880Z,10.53
2022-11-13T01:49:10.297Z,10.47
2022-11-13T01:51:59.562Z,9.67
2022-11-13T01:54:30.084Z,9.57
2022-11-13T01:56:57.516Z,10.00
2022-11-13T01:59:27.965Z,9.93
2022-11-13T02:01:56.284Z,9.63
2022-11-13T02:04:23.399Z,9.77
2022-11-13T02:07:00.489Z,9.03
2022-11-13T02:09:30.100Z,9.10
2022-11-13T02:11:57.359Z,9.27
2022-11-13T02:14:26.637Z,8.93
2022-11-13T02:16:58.958Z,10.13
2022-11-13T02:19:34.368Z,10.13
2022-11-13T02:22:25.677Z,9.67
2022-11-13T02:24:55.017Z,9.23
2022-11-13T02:27:30.536Z,9.57
2022-11-13T02:29:56.971Z,9.13
2022-11-13T02:32:23.461Z,9.80
2022-11-13T02:34:49.857Z,8.70
2022-11-13T02:37:16.296Z,8.70
2022-11-13T02:39:42.666Z,9.23
2022-11-13T02:42:09.037Z,9.50
2022-11-13T02:44:35.466Z,8.50
2022-11-13T02:47:01.828Z,9.00
2022-11-13T02:49:28.200Z,8.23
2022-11-13T02:51:54.656Z,9.10
2022-11-13T02:54:21.055Z,8.60
2022-11-13T02:56:47.596Z,8.30
2022-11-13T02:59:13.984Z,8.60
2022-11-13T03:01:40.371Z,8.37
2022-11-13T03:04:06.790Z,9.20
2022-11-13T03:06:33.182Z,8.90
2022-11-13T03:08:59.563Z,8.43
2022-11-13T03:11:25.956Z,8.97
2022-11-13T03:13:53.327Z,8.90
2022-11-13T03:16:19.745Z,8.60
2022-11-13T03:18:46.139Z,8.73
2022-11-13T03:21:14.936Z,9.07
2022-11-13T03:23:45.017Z,9.10
2022-11-13T03:26:15.704Z,9.10
2022-11-13T03:28:42.326Z,8.07
2022-11-13T03:31:08.927Z,8.77
2022-11-13T03:33:35.273Z,8.80
2022-11-13T03:36:01.775Z,9.00
2022-11-13T03:38:28.442Z,8.07
2022-11-13T03:40:55.429Z,7.97
2022-11-13T03:43:21.952Z,8.73
2022-11-13T03:45:48.423Z,7.73
2022-11-13T03:48:15.825Z,8.47
2022-11-13T03:50:45.580Z,8.43
2022-11-13T03:53:12.249Z,9.13
2022-11-13T03:55:38.910Z,8.40
2022-11-13T03:58:05.688Z,8.13
2022-11-13T04:00:32.582Z,8.50
2022-11-13T04:02:59.154Z,8.80
2022-11-13T04:05:25.646Z,9.20
2022-11-13T04:07:52.039Z,8.20
2022-11-13T04:10:18.615Z,8.53
2022-11-13T04:12:45.107Z,8.33
2022-11-13T04:15:11.514Z,8.00
2022-11-13T04:17:38.070Z,9.20
2022-11-13T04:20:04.952Z,8.87
2022-11-13T04:22:31.327Z,8.57
2022-11-13T04:24:57.689Z,9.03
2022-11-13T04:27:24.117Z,9.20
2022-11-13T04:29:50.584Z,8.47
2022-11-13T04:32:17.038Z,8.43
2022-11-13T04:34:43.410Z,8.30
2022-11-13T04:37:09.831Z,9.40
2022-11-13T04:39:36.236Z,8.77
2022-11-13T04:42:21.015Z,8.23
2022-11-13T04:44:47.437Z,8.37
2022-11-13T04:47:14.081Z,8.53
2022-11-13T04:49:40.510Z,8.07
2022-11-13T04:52:07.121Z,8.87
2022-11-13T04:54:33.491Z,8.37
2022-11-13T04:56:59.842Z,7.83
2022-11-13T04:59:26.229Z,7.53
2022-11-13T05:01:52.643Z,8.90
2022-11-13T05:04:19.243Z,8.13
2022-11-13T05:06:45.750Z,8.13
2022-11-13T05:09:12.637Z,7.87
2022-11-13T05:11:39.208Z,8.07
2022-11-13T05:14:06.036Z,8.53
2022-11-13T05:16:35.250Z,8.30
2022-11-13T05:19:06.841Z,8.20
2022-11-13T05:21:34.772Z,7.80
2022-11-13T05:24:01.356Z,7.33
2022-11-13T05:26:28.229Z,8.30
2022-11-13T05:28:58.932Z,7.27
2022-11-13T05:31:26.398Z,7.17
2022-11-13T05:33:53.722Z,7.70
2022-11-13T05:36:20.480Z,7.53
2022-11-13T05:38:46.927Z,7.07
2022-11-13T05:41:21.391Z,7.20
2022-11-13T05:43:48.323Z,7.20
2022-11-13T05:46:23.701Z,7.77
2022-11-13T05:48:55.877Z,7.00
2022-11-13T05:51:30.488Z,7.47
2022-11-13T05:53:57.673Z,6.93
2022-11-13T05:56:30.386Z,7.20
2022-11-13T05:58:58.285Z,7.03
2022-11-13T06:01:35.524Z,6.60
2022-11-13T06:04:02.591Z,6.73
2022-11-13T06:06:30.377Z,5.87
2022-11-13T06:08:58.144Z,5.50
2022-11-13T06:11:27.340Z,6.30
2022-11-13T06:13:55.110Z,5.80
2022-11-13T06:16:35.129Z,6.30
2022-11-13T06:19:03.917Z,6.60
2022-11-13T06:21:32.045Z,6.87
2022-11-13T06:23:59.541Z,6.23
2022-11-13T06:26:28.850Z,6.60
2022-11-13T06:28:55.421Z,6.27
2022-11-13T06:31:24.532Z,6.90
2022-11-13T06:33:50.971Z,6.23
2022-11-13T06:36:23.856Z,6.37
2022-11-13T06:38:50.649Z,6.00
2022-11-13T06:41:20.005Z,6.77
2022-11-13T06:43:47.627Z,6.40
2022-11-13T06:46:19.713Z,6.40
2022-11-13T06:48:46.311Z,7.00
2022-11-13T06:51:38.269Z,5.90
2022-11-13T06:54:05.030Z,6.07
2022-11-13T06:56:31.376Z,6.87
2022-11-13T06:58:57.734Z,6.33
2022-11-13T07:01:26.100Z,5.90
2022-11-13T07:03:53.171Z,6.17
2022-11-13T07:06:22.111Z,7.07
2022-11-13T07:08:49.091Z,6.03
2022-11-13T07:11:21.097Z,5.87
2022-11-13T07:13:47.628Z,6.23
2022-11-13T07:16:17.991Z,5.97
2022-11-13T07:18:49.667Z,6.60
2022-11-13T07:21:16.076Z,5.70
2022-11-13T07:23:43.613Z,6.37
2022-11-13T07:26:12.999Z,6.70
2022-11-13T07:28:39.782Z,5.93
2022-11-13T07:31:06.682Z,6.57
2022-11-13T07:33:33.389Z,6.27
2022-11-13T07:36:00.081Z,6.00
2022-11-13T07:38:26.756Z,6.73
2022-11-13T07:40:53.515Z,6.30
2022-11-13T07:43:19.975Z,6.10
2022-11-13T07:45:46.398Z,6.20
2022-11-13T07:48:12.774Z,5.67
2022-11-13T07:50:39.560Z,5.50
2022-11-13T07:53:08.332Z,5.83
2022-11-13T07:55:35.812Z,5.87
2022-11-13T07:58:03.706Z,5.93
2022-11-13T08:00:33.015Z,5.60
2022-11-13T08:03:11.165Z,5.27
2022-11-13T08:05:38.643Z,5.30
2022-11-13T08:08:05.744Z,5.50
2022-11-13T08:10:32.811Z,5.03
2022-11-13T08:13:01.697Z,4.80
2022-11-13T08:15:29.487Z,5.80
2022-11-13T08:18:00.588Z,5.03
2022-11-13T08:20:28.665Z,5.20
2022-11-13T08:23:00.083Z,5.07
2022-11-13T08:25:27.471Z,5.30
2022-11-13T08:27:55.013Z,4.93
2022-11-13T08:30:23.065Z,4.83
2022-11-13T08:32:50.237Z,5.13
2022-11-13T08:35:19.906Z,5.07
2022-11-13T08:37:47.382Z,4.83
2022-11-13T08:40:14.284Z,4.67
2022-11-13T08:42:40.715Z,5.20
2022-11-13T08:45:09.036Z,4.40
2022-11-13T08:47:36.105Z,4.90
2022-11-13T08:50:02.692Z,5.13
2022-11-13T08:52:29.177Z,5.03
2022-11-13T08:54:55.757Z,4.50
2022-11-13T08:57:22.151Z,4.80
2022-11-13T08:59:49.007Z,4.87
2022-11-13T09:02:16.181Z,5.77
2022-11-13T09:04:42.698Z,4.40
2022-11-13T09:07:09.421Z,5.03
2022-11-13T09:09:35.856Z,5.50
2022-11-13T09:12:02.255Z,5.50
2022-11-13T09:14:28.668Z,5.57
2022-11-13T09:16:55.019Z,5.17
2022-11-13T09:19:21.456Z,5.80
2022-11-13T09:21:47.861Z,5.13
2022-11-13T09:24:14.298Z,5.80
2022-11-13T09:26:40.846Z,6.07
2022-11-13T09:29:07.313Z,5.20
2022-11-13T09:31:33.733Z,5.60
2022-11-13T09:34:00.250Z,5.77
2022-11-13T09:36:26.588Z,5.63
2022-11-13T09:38:52.967Z,5.77
2022-11-13T09:41:34.728Z,6.50
2022-11-13T09:44:05.860Z,6.50
2022-11-13T09:46:41.005Z,6.67
2022-11-13T09:49:22.049Z,5.80
2022-11-13T09:51:54.072Z,6.00
2022-11-13T09:54:21.745Z,6.17
2022-11-13T09:57:26.705Z,5.83
2022-11-13T10:00:06.797Z,6.53
2022-11-13T10:02:55.867Z,5.93
2022-11-13T10:05:53.247Z,6.30
2022-11-13T10:08:28.976Z,5.70
2022-11-13T10:11:26.852Z,5.57
2022-11-13T10:14:00.487Z,6.83
2022-11-13T10:16:34.693Z,6.10
2022-11-13T10:19:12.054Z,6.30
2022-11-13T10:21:45.104Z,5.73
2022-11-13T10:24:24.822Z,5.63
2022-11-13T10:26:51.317Z,5.50
2022-11-13T10:29:20.155Z,5.90
2022-11-13T10:31:49.134Z,5.30
2022-11-13T10:34:17.870Z,6.70
2022-11-13T10:37:05.421Z,5.40
2022-11-13T10:39:31.812Z,5.60
2022-11-13T10:41:58.164Z,5.73
2022-11-13T10:44:37.956Z,5.20
2022-11-13T10:47:36.134Z,5.33
2022-11-13T10:50:19.476Z,5.50
2022-11-13T10:52:48.551Z,5.47
2022-11-13T10:55:40.758Z,5.80
2022-11-13T10:58:18.805Z,6.10
2022-11-13T11:00:49.165Z,5.40
2022-11-13T11:03:25.028Z,5.57
2022-11-13T11:05:55.359Z,5.43
2022-11-13T11:08:26.653Z,5.60
2022-11-13T11:11:15.642Z,5.77
2022-11-13T11:13:42.099Z,5.17
2022-11-13T11:16:11.185Z,5.50
2022-11-13T11:18:47.529Z,5.27
2022-11-13T11:21:19.412Z,5.53
2022-11-13T11:24:10.324Z,5.53
2022-11-13T11:26:49.041Z,5.40
2022-11-13T11:29:24.259Z,4.80
2022-11-13T11:31:52.680Z,5.30
2022-11-13T11:34:31.501Z,5.10
2022-11-13T11:37:05.693Z,4.97
2022-11-13T11:39:46.827Z,5.27
2022-11-13T11:42:31.991Z,5.10
2022-11-13T11:45:27.444Z,5.50
2022-11-13T11:47:54.264Z,5.37
2022-11-13T11:50:35.047Z,4.73
2022-11-13T11:53:13.851Z,4.63
2022-11-13T11:56:08.335Z,4.93
2022-11-13T11:59:08.663Z,4.73
2022-11-13T12:02:05.959Z,5.53
2022-11-13T12:05:04.490Z,6.17
2022-11-13T12:07:40.015Z,4.90
2022-11-13T12:10:15.460Z,4.87
2022-11-13T12:12:55.197Z,4.90
2022-11-13T12:15:39.857Z,4.60
2022-11-13T12:18:15.805Z,5.33
2022-11-13T12:21:01.087Z,5.17
2022-11-13T12:23:56.703Z,5.07
2022-11-13T12:26:28.575Z,4.80
2022-11-13T12:29:28.832Z,5.03
2022-11-13T12:32:22.810Z,4.37
2022-11-13T12:34:59.020Z,4.60
2022-11-13T12:38:01.720Z,4.23
2022-11-13T12:40:44.698Z,4.83
2022-11-13T12:43:30.742Z,4.33
2022-11-13T12:46:03.798Z,4.30
2022-11-13T12:48:36.161Z,4.73
2022-11-13T12:51:07.583Z,4.63
2022-11-13T12:53:52.466Z,4.63
2022-11-13T12:56:26.011Z,5.07
2022-11-13T12:59:23.591Z,4.60
2022-11-13T13:01:50.517Z,4.53
2022-11-13T13:04:41.365Z,4.60
2022-11-13T13:07:41.762Z,4.60
2022-11-13T13:10:34.413Z,4.20
2022-11-13T13:13:31.179Z,5.63
2022-11-13T13:16:02.757Z,4.80
2022-11-13T13:18:37.253Z,5.50
2022-11-13T13:21:15.295Z,5.30
2022-11-13T13:23:47.266Z,4.90
2022-11-13T13:26:14.904Z,5.63
2022-11-13T13:29:02.932Z,5.57
2022-11-13T13:31:51.185Z,5.83
2022-11-13T13:34:38.903Z,4.73
2022-11-13T13:37:18.021Z,5.07
2022-11-13T13:40:28.847Z,5.13
2022-11-13T13:43:16.338Z,4.33
2022-11-13T13:45:57.102Z,5.13
2022-11-13T13:48:27.358Z,4.97
2022-11-13T13:50:54.212Z,4.20
2022-11-13T13:53:28.395Z,4.50
2022-11-13T13:55:56.467Z,4.50
2022-11-13T13:58:29.510Z,4.50
2022-11-13T14:01:18.180Z,5.07
2022-11-13T14:03:45.168Z,4.57
2022-11-13T14:06:21.617Z,4.20
2022-11-13T14:08:49.105Z,4.03
2022-11-13T14:11:29.362Z,4.40
2022-11-13T14:14:07.566Z,3.90
2022-11-13T14:16:33.954Z,3.97
2022-11-13T14:19:06.483Z,4.47
2022-11-13T14:21:33.290Z,4.13
2022-11-13T14:24:02.498Z,4.07
2022-11-13T14:26:29.851Z,4.37
2022-11-13T14:28:59.824Z,4.50
2022-11-13T14:31:32.585Z,4.53
2022-11-13T14:34:10.875Z,4.23
2022-11-13T14:36:38.138Z,4.30
2022-11-13T14:39:04.762Z,4.90
2022-11-13T14:41:45.769Z,4.30
2022-11-13T14:44:12.802Z,4.40
2022-11-13T14:46:44.462Z,3.70
2022-11-13T14:49:25.473Z,4.23
2022-11-13T14:51:56.676Z,3.60
2022-11-13T14:54:37.300Z,3.80
2022-11-13T14:57:15.038Z,4.30
2022-11-13T14:59:44.413Z,4.53
2022-11-13T15:02:12.525Z,3.63
2022-11-13T15:04:40.643Z,3.83
2022-11-13T15:07:30.044Z,4.53
2022-11-13T15:09:57.578Z,5.73
2022-11-13T15:12:24.022Z,4.63
2022-11-13T15:14:50.426Z,4.50
2022-11-13T15:17:19.999Z,4.50
2022-11-13T15:19:49.194Z,4.70
2022-11-13T15:22:31.049Z,4.57
2022-11-13T15:24:57.881Z,4.73
2022-11-13T15:27:24.222Z,4.47
2022-11-13T15:29:50.693Z,5.20
2022-11-13T15:32:17.198Z,5.10
2022-11-13T15:34:43.701Z,5.57
2022-11-13T15:37:12.768Z,5.60
2022-11-13T15:39:39.484Z,5.27
2022-11-13T15:42:07.974Z,5.90
2022-11-13T15:44:34.369Z,5.47
2022-11-13T15:47:00.741Z,4.57
2022-11-13T15:49:29.589Z,6.63
2022-11-13T15:51:56.110Z,6.10
2022-11-13T15:54:33.087Z,5.60
2022-11-13T15:56:59.572Z,6.23
2022-11-13T15:59:25.939Z,6.77
2022-11-13T16:01:56.889Z,6.80
2022-11-13T16:04:30.168Z,6.73
2022-11-13T16:07:27.078Z,6.90
2022-11-13T16:09:53.637Z,6.07
2022-11-13T16:12:20.088Z,6.97
2022-11-13T16:14:46.671Z,6.77
2022-11-13T16:17:20.978Z,7.97
2022-11-13T16:19:50.526Z,7.10
2022-11-13T16:22:25.721Z,7.60
2022-11-13T16:24:52.269Z,7.53
2022-11-13T16:27:28.496Z,6.77
2022-11-13T16:29:55.484Z,6.60
2022-11-13T16:32:22.455Z,6.70
2022-11-13T16:34:49.115Z,6.63
2022-11-13T16:37:23.937Z,6.83
2022-11-13T16:39:50.666Z,6.87
2022-11-13T16:42:17.592Z,7.93
2022-11-13T16:44:44.038Z,7.50
2022-11-13T16:47:36.803Z,6.60
2022-11-13T16:50:03.443Z,7.33
2022-11-13T16:52:31.823Z,7.07
2022-11-13T16:55:01.078Z,7.03
2022-11-13T16:57:31.553Z,6.50
2022-11-13T16:59:58.048Z,7.30
2022-11-13T17:02:24.465Z,7.10
2022-11-13T17:04:50.883Z,7.83
2022-11-13T17:07:17.300Z,9.23
2022-11-13T17:09:45.316Z,9.70
2022-11-13T17:12:11.869Z,9.07
2022-11-13T17:14:38.630Z,10.10
2022-11-13T17:17:10.938Z,11.47
2022-11-13T17:19:43.693Z,10.43
2022-11-13T17:22:12.019Z,11.70
2022-11-13T17:24:39.138Z,10.83
2022-11-13T17:27:06.143Z,13.63
2022-11-13T17:29:33.333Z,12.23
2022-11-13T17:31:59.710Z,12.57
2022-11-13T17:34:26.407Z,12.13
2022-11-13T17:36:54.819Z,10.90
2022-11-13T17:39:21.900Z,11.70
2022-11-13T17:41:50.500Z,11.30
2022-11-13T17:44:17.642Z,11.27
2022-11-13T17:46:44.583Z,11.00
2022-11-13T17:49:11.094Z,11.67
2022-11-13T17:51:38.071Z,10.37
2022-11-13T17:54:04.632Z,10.90
2022-11-13T17:56:31.109Z,10.90
2022-11-13T17:58:57.502Z,10.70
2022-11-13T18:01:24.236Z,10.80
2022-11-13T18:03:58.795Z,10.83
2022-11-13T18:06:25.390Z,10.47
2022-11-13T18:08:51.947Z,8.80
2022-11-13T18:11:22.203Z,8.03
2022-11-13T18:13:50.212Z,7.97
2022-11-13T18:16:20.814Z,7.97
2022-11-13T18:18:53.624Z,7.33
2022-11-13T18:21:26.749Z,7.53
2022-11-13T18:24:00.529Z,7.27
2022-11-13T18:26:28.806Z,8.10
2022-11-13T18:28:55.805Z,7.33
2022-11-13T18:31:23.305Z,7.33
2022-11-13T18:33:50.338Z,6.50
2022-11-13T18:36:17.169Z,6.50
2022-11-13T18:38:44.148Z,7.60
2022-11-13T18:41:15.997Z,7.93
2022-11-13T18:43:44.495Z,7.60
2022-11-13T18:46:11.779Z,7.50
2022-11-13T18:48:39.859Z,9.60
2022-11-13T18:51:10.443Z,8.83
2022-11-13T18:53:37.140Z,8.27
2022-11-13T18:56:10.227Z,7.77
2022-11-13T18:58:41.807Z,8.00
2022-11-13T19:01:11.002Z,7.90
2022-11-13T19:03:37.608Z,8.57
2022-11-13T19:06:12.130Z,8.00
2022-11-13T19:08:40.846Z,8.27
2022-11-13T19:11:10.827Z,8.93
2022-11-13T19:13:38.728Z,8.30
2022-11-13T19:16:13.303Z,8.60
2022-11-13T19:18:41.230Z,8.10
2022-11-13T19:21:12.750Z,7.80
2022-11-13T19:23:39.227Z,8.60
2022-11-13T19:26:07.306Z,9.00
2022-11-13T19:28:33.757Z,8.80
2022-11-13T19:31:00.162Z,8.83
2022-11-13T19:33:28.280Z,7.93
2022-11-13T19:35:55.807Z,8.40
2022-11-13T19:38:22.416Z,8.07
2022-11-13T19:40:52.535Z,8.07
2022-11-13T19:43:19.121Z,7.63
2022-11-13T19:45:45.716Z,7.07
2022-11-13T19:48:17.538Z,8.07
2022-11-13T19:50:47.606Z,8.00
2022-11-13T19:53:17.587Z,8.43
2022-11-13T19:55:54.378Z,8.33
2022-11-13T19:58:21.332Z,9.40
2022-11-13T20:00:48.430Z,9.37
2022-11-13T20:03:15.304Z,8.97
2022-11-13T20:05:43.534Z,9.20
2022-11-13T20:08:11.784Z,10.63
2022-11-13T20:10:38.556Z,10.23
2022-11-13T20:13:05.662Z,9.53
2022-11-13T20:15:32.734Z,9.30
2022-11-13T20:17:59.347Z,11.13
2022-11-13T20:20:26.223Z,9.53
2022-11-13T20:22:52.704Z,9.30
2022-11-13T20:25:19.266Z,9.73
2022-11-13T20:27:47.439Z,10.87
2022-11-13T20:30:14.278Z,9.33
2022-11-13T20:32:40.950Z,7.93
2022-11-13T20:35:08.738Z,9.47
2022-11-13T20:37:35.436Z,9.33
2022-11-13T20:40:01.860Z,9.80
2022-11-13T20:42:28.341Z,9.90
2022-11-13T20:44:58.534Z,9.87
2022-11-13T20:47:27.414Z,8.87
2022-11-13T20:49:53.886Z,9.83
2022-11-13T20:52:20.257Z,9.50
2022-11-13T20:54:46.704Z,8.90
2022-11-13T20:57:13.138Z,8.37
2022-11-13T20:59:39.610Z,8.70
2022-11-13T21:02:06.030Z,8.90
2022-11-13T21:04:32.488Z,9.27
2022-11-13T21:06:58.882Z,9.30
2022-11-13T21:09:28.598Z,9.23
2022-11-13T21:11:54.964Z,9.13
2022-11-13T21:14:21.487Z,8.97
2022-11-13T21:16:47.921Z,8.83
2022-11-13T21:19:14.298Z,9.33
2022-11-13T21:21:41.475Z,9.10
2022-11-13T21:24:08.002Z,8.80
2022-11-13T21:26:34.628Z,8.40
2022-11-13T21:29:01.092Z,7.93
2022-11-13T21:31:27.569Z,9.10
2022-11-13T21:33:54.796Z,10.03
2022-11-13T21:36:23.718Z,8.43
2022-11-13T21:38:52.506Z,9.73
2022-11-13T21:41:23.246Z,9.33
2022-11-13T21:43:57.821Z,8.93
2022-11-13T21:46:27.652Z,9.60
2022-11-13T21:48:59.796Z,9.30
2022-11-13T21:51:26.994Z,9.37
2022-11-13T21:53:53.451Z,8.60
2022-11-13T21:56:19.908Z,8.80
2022-11-13T21:58:46.333Z,9.47
2022-11-13T22:01:13.643Z,10.57
2022-11-13T22:03:40.595Z,8.97
2022-11-13T22:06:18.091Z,9.00
2022-11-13T22:08:45.830Z,9.33
2022-11-13T22:11:12.711Z,8.87
2022-11-13T22:13:39.592Z,9.17
2022-11-13T22:16:07.949Z,8.93
2022-11-13T22:18:34.514Z,9.20
2022-11-13T22:21:06.194Z,9.00
2022-11-13T22:23:33.179Z,9.10
2022-11-13T22:26:03.978Z,8.83
2022-11-13T22:28:32.183Z,9.37
2022-11-13T22:30:59.121Z,8.70
2022-11-13T22:33:34.392Z,8.43
2022-11-13T22:36:08.724Z,8.23
2022-11-13T22:38:35.365Z,8.40
2022-11-13T22:41:22.576Z,8.80
2022-11-13T22:43:52.429Z,8.50
2022-11-13T22:46:23.879Z,8.37
2022-11-13T22:48:52.193Z,8.77
2022-11-13T22:51:27.633Z,8.23
2022-11-13T22:53:56.196Z,8.50
2022-11-13T22:56:24.367Z,7.70
2022-11-13T22:58:53.991Z,8.23
2022-11-13T23:01:23.413Z,9.00
2022-11-13T23:03:51.740Z,8.60
2022-11-13T23:06:21.206Z,9.07
2022-11-13T23:08:48.310Z,8.50
2022-11-13T23:11:20.502Z,7.10
2022-11-13T23:13:49.615Z,8.07
2022-11-13T23:16:16.746Z,8.07
2022-11-13T23:18:43.445Z,8.27
2022-11-13T23:21:11.907Z,8.77
2022-11-13T23:23:38.400Z,7.87
2022-11-13T23:26:06.034Z,8.20
2022-11-13T23:28:32.809Z,8.33
2022-11-13T23:30:59.237Z,8.33
2022-11-13T23:33:26.055Z,7.83
2022-11-13T23:35:52.640Z,8.23
2022-11-13T23:38:19.398Z,7.77
2022-11-13T23:40:45.814Z,7.80
2022-11-13T23:43:12.391Z,8.17
2022-11-13T23:45:39.002Z,7.10
2022-11-13T23:48:05.728Z,7.97
2022-11-13T23:50:32.174Z,7.90
2022-11-13T23:52:58.540Z,7.70
2022-11-13T23:55:24.936Z,7.27
2022-11-13T23:58:02.287Z,8.67
